CYAW/YAW METAR and TAF weather

Enter ICAO airport designator
Station Type Date Time Source
CYAW METAR 2020/04/06 18:00 UTC NOAA

CYAW 061800Z 28018G25KT 15SM FEW020 FEW250 12/M09 A2969 RMK CF1CI1 DA144FT FST OBS CUFRA TR SLP057


Station Type Date Time Source
CYAW Decoded METAR 2020/04/06 18:00 UTC NOAA

Shearwater, N. S., Canada (CYAW) 44-38N 063-30W 51M
Apr 06, 2020 - 02:00 PM EDT / 2020.04.06 1800 UTC
Wind: from the W (280 degrees) at 21 MPH (18 KT) gusting to 29 MPH (25 KT):0
Visibility: 15 mile(s):0
Sky conditions: mostly clear
Temperature: 53 F (12 C)
Dew Point: 15 F (-9 C)
Relative Humidity: 22%
Pressure (altimeter): 29.69 in. Hg (1005 hPa)
ob: CYAW 061800Z 28018G25KT 15SM FEW020 FEW250 12/M09 A2969 RMK CF1CI1 DA144FT FST OBS CUFRA TR SLP057
cycle: 18

Station Type Date Time Source
CYAW TAF 2020/04/06 18:20 UTC NOAA

TAF CYAW 061716Z 0618/0706 FCST NOT AVBL DUE NO OBS
RMK NO FCST ISSUED UFN

Example: see airport list